Portada
METAR-TAF:

METAR-TAF

Aeropuertos :

Kanoya, Japón

latitud: 31-22N, longitud: 130-50E, altitud: 65 m

Observación

El informe se hizo hace 14 horas y 31 minutos, a las 19:26 UTC
Viento 2 kt del oeste
Temperatura 17°C
Humedad 94%
Presión 1009 hPa
Visibilidad 10 km o más
Nubes dispersas a una altura de 1000 ft
Nubes dispersas a una altura de 1500 ft
Cielo nuboso a una altura de 2500 ft

METAR: RJFY 071926Z 27002KT 9999 SCT010 SCT015 BKN025 17/16 Q1009 RMK 3CU010 4CU015 6CU025 A2982

Hora: 18:57 (09:57 UTC)


TAF: falta

Observaciones y pronósticos meteorológicos de más de 4000 aeropuertos (mensajes METAR y TAF).

Los puntos amarillos y rojos representan las estaciones disponibles.

Ponga el ratón en el punto deseado para ver el nombre de la estación.

Haga clic para ver las observaciones y los pronósticos meteorológicos.

Para cambiar el mapa : haga clic en los botones verdes con una cruz de color negro para hacer un zoom, en el botón verde con un guión para alejar o en las flechas verdes para mapas adyacentes.


METAR-TAF: